Eva, TN

8:37 AM CDT on July 06, 2015 (GMT -0500)
KTNWAVER2 | | Change Station
CLOSE
Current Station
Personal Weather Station
Location: Waverly, TN
Elevation: 453 ft
Nearby Weather Stations

Elev 453 ft 36.16 °N, 87.90 °W | Updated 4 minutes ago

Mostly Cloudy
Mostly Cloudy
73.2 °F
Feels Like 73.2 °F
N
0.0
Wind Variable Wind from South
Gusts 2.0 mph

Today
High -- | Low -- °F
--% Chance of Precip.
Yesterday
High -- | Low -- °F
Precip. -- in
5:40 AM 8:12 PM
Waning Gibbous, 75% visible
Pressure 30.12 in
Visibility 1.8 miles
Clouds Overcast 300 ft
Dew Point 71 °F
Humidity 94%
Rainfall 0.00 in
Snow Depth Not available.
UV 1 out of 12
Pollen 3.10 out of 12
Air Quality Not available.
Flu Activity Not available.
METAR KCEY 061315Z AUTO 22006KT 1 3/4SM OVC003 22/22 A3012 RMK AO1

More Conditions Fewer Conditions

Pressure 30.12 in
Visibility 1.8 miles
Clouds Overcast 300 ft
Dew Point 71 °F
Humidity 94%
Rainfall 0.00 in
Snow Depth Not available.
UV 1 out of 12
Pollen 3.10 out of 12
Air Quality Not available.
Flu Activity Not available.
METAR KCEY 061315Z AUTO 22006KT 1 3/4SM OVC003 22/22 A3012 RMK AO1

More Conditions Fewer Conditions

10-Day Weather Forecast

×

Almanac

Astronomy

Jul. 06, 2015 Rise Set
Actual Time
Civil Twilight
Nautical Twilight
Astronomical Twilight
Moon
Length of Visible Light
Length of Day
Tomorrow will be .
, % of the Moon is Illuminated

Today's Extremes

State Highs State Lows

Community

WunderPhotos

Upload Photos

1,835,558 photos uploaded!

WunderBlogs® & News

Nearby

Air Quality

  Air Quality AQ Index Pollutant
Not available.

Snow Depth

Station Depth Elevation

Earthquake Activity

City Distance Mag. Time & Date
Minimum magnitude displayed is 2.5.

Coastal Water Temperatures

Place Temperature

Stations

Nearby Weather Stations

Station Location Temp. Windchill Dew Point Humidity Wind Precip. Elev Updated Type